createdAt,value
2022-10-30T00:00:43.291Z,100.00
2022-10-30T00:03:13.495Z,100.00
2022-10-30T00:05:46.454Z,100.00
2022-10-30T00:08:15.612Z,100.00
2022-10-30T00:10:44.441Z,100.00
2022-10-30T00:13:12.850Z,100.00
2022-10-30T00:15:40.568Z,100.00
2022-10-30T00:18:07.867Z,100.00
2022-10-30T00:20:37.520Z,100.00
2022-10-30T00:23:05.660Z,100.00
2022-10-30T00:25:34.505Z,100.00
2022-10-30T00:28:02.577Z,100.00
2022-10-30T00:30:29.907Z,100.00
2022-10-30T00:32:58.043Z,100.00
2022-10-30T00:35:25.484Z,100.00
2022-10-30T00:37:52.884Z,100.00
2022-10-30T00:40:20.808Z,100.00
2022-10-30T00:42:48.808Z,100.00
2022-10-30T00:45:17.530Z,100.00
2022-10-30T00:48:00.671Z,100.00
2022-10-30T00:50:34.277Z,100.00
2022-10-30T00:53:12.660Z,100.00
2022-10-30T00:56:02.598Z,100.00
2022-10-30T00:58:44.973Z,100.00
2022-10-30T01:01:20.122Z,100.00
2022-10-30T01:03:50.467Z,100.00
2022-10-30T01:06:19.347Z,100.00
2022-10-30T01:08:47.630Z,100.00
2022-10-30T01:11:15.246Z,100.00
2022-10-30T01:13:47.021Z,100.00
2022-10-30T01:16:34.313Z,100.00
2022-10-30T01:19:20.821Z,100.00
2022-10-30T01:22:09.950Z,100.00
2022-10-30T01:24:49.456Z,100.00
2022-10-30T01:27:40.171Z,100.00
2022-10-30T01:30:35.962Z,100.00
2022-10-30T01:33:06.116Z,100.00
2022-10-30T01:35:44.161Z,100.00
2022-10-30T01:38:18.501Z,100.00
2022-10-30T01:40:48.362Z,100.00
2022-10-30T01:43:15.998Z,100.00
2022-10-30T01:46:01.955Z,100.00
2022-10-30T01:48:53.868Z,100.00
2022-10-30T01:51:27.358Z,100.00
2022-10-30T01:54:00.747Z,100.00
2022-10-30T01:56:49.621Z,100.00
2022-10-30T01:59:35.093Z,100.00
2022-10-30T02:02:02.953Z,100.00
2022-10-30T02:04:32.305Z,100.00
2022-10-30T02:06:59.713Z,100.00
2022-10-30T02:09:27.225Z,100.00
2022-10-30T02:11:55.578Z,100.00
2022-10-30T02:14:35.163Z,100.00
2022-10-30T02:17:08.091Z,100.00
2022-10-30T02:19:35.903Z,100.00
2022-10-30T02:22:04.261Z,100.00
2022-10-30T02:24:33.343Z,100.00
2022-10-30T02:27:00.704Z,100.00
2022-10-30T02:29:28.182Z,100.00
2022-10-30T02:31:55.597Z,100.00
2022-10-30T02:34:23.197Z,100.00
2022-10-30T02:36:50.539Z,100.00
2022-10-30T02:39:20.111Z,100.00
2022-10-30T02:41:48.576Z,100.00
2022-10-30T02:44:15.947Z,100.00
2022-10-30T02:46:43.275Z,100.00
2022-10-30T02:49:11.125Z,100.00
2022-10-30T02:51:38.416Z,100.00
2022-10-30T02:54:05.909Z,100.00
2022-10-30T02:56:33.428Z,100.00
2022-10-30T02:59:01.238Z,100.00
2022-10-30T03:01:29.112Z,100.00
2022-10-30T03:03:58.915Z,100.00
2022-10-30T03:06:26.274Z,100.00
2022-10-30T03:08:53.624Z,100.00
2022-10-30T03:11:21.733Z,100.00
2022-10-30T03:13:49.759Z,100.00
2022-10-30T03:16:23.499Z,100.00
2022-10-30T03:18:51.946Z,100.00
2022-10-30T03:21:21.632Z,100.00
2022-10-30T03:23:50.671Z,100.00
2022-10-30T03:26:19.354Z,100.00
2022-10-30T03:28:56.740Z,100.00
2022-10-30T03:31:24.139Z,100.00
2022-10-30T03:34:08.357Z,100.00
2022-10-30T03:36:35.822Z,100.00
2022-10-30T03:39:03.492Z,100.00
2022-10-30T03:41:32.749Z,100.00
2022-10-30T03:44:00.304Z,100.00
2022-10-30T03:46:28.054Z,100.00
2022-10-30T03:49:03.648Z,100.00
2022-10-30T03:51:31.021Z,100.00
2022-10-30T03:53:58.930Z,100.00
2022-10-30T03:56:28.048Z,100.00
2022-10-30T03:58:59.440Z,100.00
2022-10-30T04:01:27.043Z,100.00
2022-10-30T04:03:57.591Z,100.00
2022-10-30T04:06:26.262Z,100.00
2022-10-30T04:08:55.443Z,100.00
2022-10-30T04:11:24.169Z,100.00
2022-10-30T04:13:51.636Z,100.00
2022-10-30T04:16:18.948Z,100.00
2022-10-30T04:18:46.322Z,100.00
2022-10-30T04:21:13.659Z,100.00
2022-10-30T04:23:41.139Z,100.00
2022-10-30T04:26:09.941Z,100.00
2022-10-30T04:28:40.486Z,100.00
2022-10-30T04:31:08.624Z,100.00
2022-10-30T04:33:36.327Z,100.00
2022-10-30T04:36:03.865Z,100.00
2022-10-30T04:38:32.472Z,100.00
2022-10-30T04:41:00.996Z,100.00
2022-10-30T04:43:43.263Z,100.00
2022-10-30T04:46:10.658Z,100.00
2022-10-30T04:48:39.130Z,100.00
2022-10-30T04:51:07.164Z,100.00
2022-10-30T04:53:34.496Z,100.00
2022-10-30T04:56:07.257Z,100.00
2022-10-30T04:58:34.648Z,100.00
2022-10-30T05:01:07.625Z,100.00
2022-10-30T05:03:36.364Z,100.00
2022-10-30T05:06:16.721Z,100.00
2022-10-30T05:08:44.045Z,100.00
2022-10-30T05:11:22.976Z,100.00
2022-10-30T05:13:50.403Z,100.00
2022-10-30T05:16:18.264Z,100.00
2022-10-30T05:18:45.650Z,100.00
2022-10-30T05:21:13.373Z,100.00
2022-10-30T05:23:40.836Z,100.00
2022-10-30T05:26:08.396Z,100.00
2022-10-30T05:28:35.961Z,100.00
2022-10-30T05:31:04.674Z,100.00
2022-10-30T05:34:07.262Z,100.00
2022-10-30T05:36:37.514Z,100.00
2022-10-30T05:39:05.318Z,100.00
2022-10-30T05:41:37.992Z,100.00
2022-10-30T05:44:05.697Z,100.00
2022-10-30T05:46:34.083Z,100.00
2022-10-30T05:49:18.077Z,100.00
2022-10-30T05:51:45.791Z,100.00
2022-10-30T05:54:13.199Z,100.00
2022-10-30T05:56:53.444Z,100.00
2022-10-30T05:59:21.037Z,100.00
2022-10-30T06:01:48.371Z,100.00
2022-10-30T06:04:15.820Z,100.00
2022-10-30T06:06:43.688Z,100.00
2022-10-30T06:09:11.031Z,100.00
2022-10-30T06:12:03.719Z,100.00
2022-10-30T06:14:57.081Z,100.00
2022-10-30T06:17:25.610Z,100.00
2022-10-30T06:20:01.191Z,100.00
2022-10-30T06:22:55.674Z,100.00
2022-10-30T06:25:26.996Z,100.00
2022-10-30T06:28:01.920Z,100.00
2022-10-30T06:30:31.571Z,100.00
2022-10-30T06:33:04.086Z,100.00
2022-10-30T06:35:32.673Z,100.00
2022-10-30T06:38:01.184Z,100.00
2022-10-30T06:40:31.031Z,100.00
2022-10-30T06:43:37.225Z,100.00
2022-10-30T06:46:09.892Z,100.00
2022-10-30T06:48:40.742Z,100.00
2022-10-30T06:51:08.278Z,100.00
2022-10-30T06:53:38.943Z,100.00
2022-10-30T06:56:29.388Z,100.00
2022-10-30T06:59:29.127Z,100.00
2022-10-30T07:02:28.557Z,100.00
2022-10-30T07:04:59.432Z,100.00
2022-10-30T07:07:26.984Z,100.00
2022-10-30T07:09:54.382Z,100.00
2022-10-30T07:12:30.341Z,100.00
2022-10-30T07:15:01.725Z,100.00
2022-10-30T07:17:43.781Z,100.00
2022-10-30T07:20:23.165Z,100.00
2022-10-30T07:22:51.044Z,100.00
2022-10-30T07:25:19.387Z,100.00
2022-10-30T07:27:58.128Z,100.00
2022-10-30T07:30:48.590Z,100.00
2022-10-30T07:33:27.187Z,100.00
2022-10-30T07:36:04.035Z,100.00
2022-10-30T07:38:52.219Z,100.00
2022-10-30T07:41:28.959Z,100.00
2022-10-30T07:44:15.100Z,100.00
2022-10-30T07:46:47.680Z,100.00
2022-10-30T07:49:45.407Z,100.00
2022-10-30T07:52:17.186Z,100.00
2022-10-30T07:54:46.924Z,100.00
2022-10-30T07:57:39.431Z,100.00
2022-10-30T08:00:29.649Z,100.00
2022-10-30T08:03:12.610Z,100.00
2022-10-30T08:06:06.080Z,100.00
2022-10-30T08:08:39.094Z,100.00
2022-10-30T08:11:25.413Z,100.00
2022-10-30T08:13:54.230Z,100.00
2022-10-30T08:16:21.687Z,100.00
2022-10-30T08:18:51.104Z,100.00
2022-10-30T08:21:21.361Z,100.00
2022-10-30T08:24:07.294Z,100.00
2022-10-30T08:26:35.628Z,100.00
2022-10-30T08:29:03.934Z,100.00
2022-10-30T08:31:31.796Z,100.00
2022-10-30T08:34:01.992Z,100.00
2022-10-30T08:36:40.792Z,100.00
2022-10-30T08:39:09.333Z,100.00
2022-10-30T08:41:45.095Z,100.00
2022-10-30T08:44:12.777Z,100.00
2022-10-30T08:47:00.348Z,100.00
2022-10-30T08:49:28.082Z,100.00
2022-10-30T08:51:58.231Z,100.00
2022-10-30T08:54:26.742Z,100.00
2022-10-30T08:56:55.291Z,100.00
2022-10-30T08:59:23.977Z,100.00
2022-10-30T09:01:54.190Z,100.00
2022-10-30T09:04:21.792Z,100.00
2022-10-30T09:07:10.338Z,100.00
2022-10-30T09:09:59.082Z,100.00
2022-10-30T09:12:30.351Z,100.00
2022-10-30T09:14:57.746Z,100.00
2022-10-30T09:17:25.742Z,100.00
2022-10-30T09:19:54.567Z,100.00
2022-10-30T09:22:32.990Z,100.00
2022-10-30T09:25:00.679Z,100.00
2022-10-30T09:27:47.130Z,100.00
2022-10-30T09:30:17.973Z,100.00
2022-10-30T09:32:59.317Z,100.00
2022-10-30T09:35:46.843Z,100.00
2022-10-30T09:38:15.125Z,100.00
2022-10-30T09:41:13.677Z,100.00
2022-10-30T09:43:53.787Z,100.00
2022-10-30T09:47:11.647Z,100.00
2022-10-30T09:50:01.706Z,100.00
2022-10-30T09:53:02.562Z,100.00
2022-10-30T09:55:36.796Z,100.00
2022-10-30T09:58:10.000Z,95.09
2022-10-30T10:00:39.908Z,87.30
2022-10-30T10:03:34.532Z,83.16
2022-10-30T10:06:24.363Z,70.29
2022-10-30T10:09:20.823Z,68.37
2022-10-30T10:12:13.436Z,68.52
2022-10-30T10:14:47.134Z,70.78
2022-10-30T10:17:24.317Z,69.61
2022-10-30T10:19:59.597Z,67.30
2022-10-30T10:22:42.427Z,63.39
2022-10-30T10:25:16.933Z,58.97
2022-10-30T10:28:03.185Z,55.24
2022-10-30T10:30:52.009Z,54.77
2022-10-30T10:34:00.245Z,54.96
2022-10-30T10:37:08.470Z,51.50
2022-10-30T10:39:42.744Z,48.81
2022-10-30T10:42:20.215Z,48.03
2022-10-30T10:45:02.525Z,45.68
2022-10-30T10:47:36.235Z,47.03
2022-10-30T10:50:25.536Z,48.90
2022-10-30T10:53:18.845Z,47.49
2022-10-30T10:55:51.351Z,46.02
2022-10-30T10:58:39.270Z,47.42
2022-10-30T11:01:14.122Z,51.01
2022-10-30T11:03:57.612Z,55.17
2022-10-30T11:06:35.055Z,58.63
2022-10-30T11:09:23.122Z,57.35
2022-10-30T11:11:52.688Z,51.93
2022-10-30T11:14:23.432Z,46.60
2022-10-30T11:17:09.397Z,45.29
2022-10-30T11:19:36.786Z,42.47
2022-10-30T11:22:17.087Z,41.78
2022-10-30T11:24:44.506Z,41.95
2022-10-30T11:27:24.148Z,40.94
2022-10-30T11:30:02.531Z,41.63
2022-10-30T11:32:32.973Z,41.47
2022-10-30T11:35:02.946Z,42.65
2022-10-30T11:37:32.793Z,42.97
2022-10-30T11:40:07.268Z,43.19
2022-10-30T11:42:36.162Z,42.74
2022-10-30T11:45:04.770Z,42.81
2022-10-30T11:47:37.959Z,41.24
2022-10-30T11:50:30.149Z,42.36
2022-10-30T11:53:10.447Z,41.08
2022-10-30T11:55:46.558Z,40.57
2022-10-30T11:58:33.721Z,41.16
2022-10-30T12:01:13.612Z,41.13
2022-10-30T12:03:42.490Z,40.65
2022-10-30T12:06:39.069Z,41.58
2022-10-30T12:09:23.192Z,41.99
2022-10-30T12:11:50.898Z,41.59
2022-10-30T12:14:24.934Z,41.76
2022-10-30T12:16:55.188Z,43.36
2022-10-30T12:19:26.348Z,46.68
2022-10-30T12:21:58.531Z,51.73
2022-10-30T12:24:37.865Z,54.46
2022-10-30T12:27:13.978Z,57.32
2022-10-30T12:30:07.356Z,61.25
2022-10-30T12:32:51.276Z,63.59
2022-10-30T12:35:42.972Z,66.49
2022-10-30T12:38:18.174Z,67.66
2022-10-30T12:41:04.075Z,68.90
2022-10-30T12:43:35.037Z,70.44
2022-10-30T12:46:24.440Z,70.84
2022-10-30T12:49:03.313Z,72.00
2022-10-30T12:51:38.828Z,73.32
2022-10-30T12:54:30.955Z,75.15
2022-10-30T12:57:10.746Z,74.30
2022-10-30T12:59:55.339Z,75.25
2022-10-30T13:03:02.193Z,74.48
2022-10-30T13:05:35.609Z,74.52
2022-10-30T13:08:20.753Z,74.85
2022-10-30T13:10:53.000Z,76.98
2022-10-30T13:13:29.882Z,76.68
2022-10-30T13:15:59.221Z,76.07
2022-10-30T13:18:27.355Z,77.16
2022-10-30T13:21:22.603Z,77.05
2022-10-30T13:24:01.449Z,77.34
2022-10-30T13:26:56.126Z,77.49
2022-10-30T13:29:48.589Z,77.46
2022-10-30T13:33:03.746Z,79.46
2022-10-30T13:35:44.147Z,79.50
2022-10-30T13:38:20.616Z,80.96
2022-10-30T13:40:58.724Z,80.56
2022-10-30T13:43:49.869Z,80.09
2022-10-30T13:46:26.165Z,79.81
2022-10-30T13:49:03.819Z,79.42
2022-10-30T13:51:42.452Z,80.64
2022-10-30T13:54:24.659Z,81.93
2022-10-30T13:56:53.344Z,81.03
2022-10-30T13:59:47.635Z,80.47
2022-10-30T14:02:33.142Z,81.53
2022-10-30T14:05:16.328Z,81.45
2022-10-30T14:07:50.481Z,82.41
2022-10-30T14:10:25.706Z,83.36
2022-10-30T14:13:07.368Z,84.39
2022-10-30T14:15:43.218Z,83.79
2022-10-30T14:18:13.552Z,84.70
2022-10-30T14:21:21.089Z,84.85
2022-10-30T14:23:48.497Z,85.51
2022-10-30T14:26:21.583Z,86.85
2022-10-30T14:28:51.270Z,86.40
2022-10-30T14:31:32.114Z,86.88
2022-10-30T14:34:00.385Z,87.56
2022-10-30T14:36:40.182Z,88.47
2022-10-30T14:39:10.769Z,89.63
2022-10-30T14:42:13.134Z,91.25
2022-10-30T14:45:13.415Z,92.34
2022-10-30T14:48:00.152Z,93.91
2022-10-30T14:50:27.515Z,94.42
2022-10-30T14:53:22.540Z,96.66
2022-10-30T14:56:26.694Z,97.74
2022-10-30T14:59:21.406Z,98.47
2022-10-30T15:01:52.723Z,100.00
2022-10-30T15:04:49.802Z,100.00
2022-10-30T15:07:45.263Z,100.00
2022-10-30T15:10:31.345Z,100.00
2022-10-30T15:13:08.082Z,100.00
2022-10-30T15:15:36.086Z,100.00
2022-10-30T15:18:20.493Z,100.00
2022-10-30T15:20:55.572Z,100.00
2022-10-30T15:23:29.776Z,100.00
2022-10-30T15:26:06.444Z,100.00
2022-10-30T15:28:38.807Z,100.00
2022-10-30T15:31:24.062Z,100.00
2022-10-30T15:33:54.198Z,100.00
2022-10-30T15:36:35.029Z,100.00
2022-10-30T15:39:12.763Z,100.00
2022-10-30T15:41:57.128Z,100.00
2022-10-30T15:44:29.456Z,100.00
2022-10-30T15:47:00.972Z,100.00
2022-10-30T15:49:36.496Z,100.00
2022-10-30T15:52:14.060Z,100.00
2022-10-30T15:54:44.066Z,100.00
2022-10-30T15:58:02.429Z,100.00
2022-10-30T16:00:36.775Z,100.00
2022-10-30T16:03:16.020Z,100.00
2022-10-30T16:05:43.716Z,100.00
2022-10-30T16:08:22.589Z,100.00
2022-10-30T16:10:54.365Z,100.00
2022-10-30T16:13:29.860Z,100.00
2022-10-30T16:15:57.450Z,100.00
2022-10-30T16:18:30.587Z,100.00
2022-10-30T16:21:08.513Z,100.00
2022-10-30T16:23:41.457Z,100.00
2022-10-30T16:26:30.023Z,100.00
2022-10-30T16:28:59.121Z,100.00
2022-10-30T16:31:33.182Z,100.00
2022-10-30T16:34:02.118Z,100.00
2022-10-30T16:36:30.544Z,100.00
2022-10-30T16:38:58.663Z,100.00
2022-10-30T16:41:28.361Z,100.00
2022-10-30T16:44:15.093Z,100.00
2022-10-30T16:46:48.125Z,100.00
2022-10-30T16:49:22.489Z,100.00
2022-10-30T16:51:58.704Z,100.00
2022-10-30T16:54:38.908Z,100.00
2022-10-30T16:57:27.119Z,100.00
2022-10-30T16:59:56.194Z,100.00
2022-10-30T17:02:29.297Z,100.00
2022-10-30T17:05:08.444Z,100.00
2022-10-30T17:07:37.098Z,100.00
2022-10-30T17:10:41.942Z,100.00
2022-10-30T17:13:34.378Z,100.00
2022-10-30T17:16:25.667Z,100.00
2022-10-30T17:18:55.163Z,100.00
2022-10-30T17:21:42.099Z,100.00
2022-10-30T17:24:29.041Z,100.00
2022-10-30T17:26:58.483Z,100.00
2022-10-30T17:29:52.709Z,100.00
2022-10-30T17:32:25.556Z,100.00
2022-10-30T17:35:14.810Z,100.00
2022-10-30T17:37:42.522Z,100.00
2022-10-30T17:40:10.912Z,100.00
2022-10-30T17:42:38.857Z,100.00
2022-10-30T17:45:10.328Z,100.00
2022-10-30T17:47:38.002Z,100.00
2022-10-30T17:50:06.315Z,100.00
2022-10-30T17:52:34.801Z,100.00
2022-10-30T17:55:02.848Z,100.00
2022-10-30T17:57:30.180Z,100.00
2022-10-30T17:59:57.605Z,100.00
2022-10-30T18:02:25.082Z,100.00
2022-10-30T18:04:54.941Z,100.00
2022-10-30T18:07:22.514Z,100.00
2022-10-30T18:09:49.849Z,100.00
2022-10-30T18:12:19.174Z,100.00
2022-10-30T18:14:46.635Z,100.00
2022-10-30T18:17:13.994Z,100.00
2022-10-30T18:19:41.268Z,100.00
2022-10-30T18:22:10.363Z,100.00
2022-10-30T18:24:37.741Z,100.00
2022-10-30T18:27:05.160Z,100.00
2022-10-30T18:29:32.669Z,100.00
2022-10-30T18:32:00.924Z,100.00
2022-10-30T18:34:29.702Z,100.00
2022-10-30T18:36:57.179Z,100.00
2022-10-30T18:39:24.636Z,100.00
2022-10-30T18:41:52.065Z,100.00
2022-10-30T18:44:24.260Z,100.00
2022-10-30T18:46:51.581Z,100.00
2022-10-30T18:49:23.088Z,100.00
2022-10-30T18:51:50.665Z,100.00
2022-10-30T18:54:18.106Z,100.00
2022-10-30T18:56:47.205Z,100.00
2022-10-30T18:59:14.564Z,100.00
2022-10-30T19:01:42.403Z,100.00
2022-10-30T19:04:11.009Z,100.00
2022-10-30T19:06:39.198Z,100.00
2022-10-30T19:09:07.138Z,100.00
2022-10-30T19:11:36.348Z,100.00
2022-10-30T19:14:13.635Z,100.00
2022-10-30T19:16:41.202Z,100.00
2022-10-30T19:19:08.691Z,100.00
2022-10-30T19:21:36.741Z,100.00
2022-10-30T19:24:09.044Z,100.00
2022-10-30T19:26:36.462Z,100.00
2022-10-30T19:29:03.871Z,100.00
2022-10-30T19:31:31.473Z,100.00
2022-10-30T19:33:58.824Z,100.00
2022-10-30T19:36:36.273Z,100.00
2022-10-30T19:39:10.281Z,100.00
2022-10-30T19:41:38.950Z,100.00
2022-10-30T19:44:06.805Z,100.00
2022-10-30T19:46:34.632Z,100.00
2022-10-30T19:49:12.584Z,100.00
2022-10-30T19:51:39.945Z,100.00
2022-10-30T19:54:07.379Z,100.00
2022-10-30T19:56:34.789Z,100.00
2022-10-30T19:59:02.234Z,100.00
2022-10-30T20:01:29.690Z,100.00
2022-10-30T20:03:57.157Z,100.00
2022-10-30T20:06:24.555Z,100.00
2022-10-30T20:08:51.874Z,100.00
2022-10-30T20:11:19.234Z,100.00
2022-10-30T20:13:49.359Z,100.00
2022-10-30T20:16:19.533Z,100.00
2022-10-30T20:18:46.845Z,100.00
2022-10-30T20:21:14.473Z,100.00
2022-10-30T20:23:42.101Z,100.00
2022-10-30T20:26:29.440Z,100.00
2022-10-30T20:28:58.798Z,100.00
2022-10-30T20:31:26.189Z,100.00
2022-10-30T20:33:53.624Z,100.00
2022-10-30T20:36:20.937Z,100.00
2022-10-30T20:38:48.314Z,100.00
2022-10-30T20:41:25.244Z,100.00
2022-10-30T20:43:52.846Z,100.00
2022-10-30T20:46:20.860Z,100.00
2022-10-30T20:48:48.415Z,100.00
2022-10-30T20:51:15.966Z,100.00
2022-10-30T20:53:43.345Z,100.00
2022-10-30T20:56:11.671Z,100.00
2022-10-30T20:58:41.234Z,100.00
2022-10-30T21:01:09.122Z,100.00
2022-10-30T21:03:36.471Z,100.00
2022-10-30T21:06:04.230Z,100.00
2022-10-30T21:08:32.056Z,100.00
2022-10-30T21:11:03.248Z,100.00
2022-10-30T21:13:34.290Z,100.00
2022-10-30T21:16:07.087Z,100.00
2022-10-30T21:18:34.960Z,100.00
2022-10-30T21:21:07.923Z,100.00
2022-10-30T21:23:35.570Z,100.00
2022-10-30T21:26:05.183Z,100.00
2022-10-30T21:28:32.657Z,100.00
2022-10-30T21:31:05.574Z,100.00
2022-10-30T21:33:34.938Z,100.00
2022-10-30T21:36:12.897Z,100.00
2022-10-30T21:38:42.106Z,100.00
2022-10-30T21:41:11.402Z,100.00
2022-10-30T21:43:38.810Z,100.00
2022-10-30T21:46:07.858Z,100.00
2022-10-30T21:48:35.411Z,100.00
2022-10-30T21:51:14.481Z,100.00
2022-10-30T21:53:42.479Z,100.00
2022-10-30T21:56:21.580Z,100.00
2022-10-30T21:58:49.566Z,100.00
2022-10-30T22:01:20.089Z,100.00
2022-10-30T22:03:47.945Z,100.00
2022-10-30T22:06:17.098Z,100.00
2022-10-30T22:08:49.086Z,100.00
2022-10-30T22:11:16.947Z,100.00
2022-10-30T22:13:44.864Z,100.00
2022-10-30T22:16:13.828Z,100.00
2022-10-30T22:18:41.786Z,100.00
2022-10-30T22:21:11.561Z,100.00
2022-10-30T22:23:40.267Z,100.00
2022-10-30T22:26:14.501Z,100.00
2022-10-30T22:28:43.044Z,100.00
2022-10-30T22:31:16.111Z,100.00
2022-10-30T22:33:44.223Z,100.00
2022-10-30T22:36:15.077Z,100.00
2022-10-30T22:38:42.535Z,100.00
2022-10-30T22:41:15.992Z,100.00
2022-10-30T22:43:45.268Z,100.00
2022-10-30T22:46:14.063Z,100.00
2022-10-30T22:48:41.613Z,100.00
2022-10-30T22:51:15.106Z,100.00
2022-10-30T22:53:46.051Z,100.00
2022-10-30T22:56:17.859Z,100.00
2022-10-30T22:58:46.850Z,100.00
2022-10-30T23:01:17.656Z,100.00
2022-10-30T23:03:45.948Z,100.00
2022-10-30T23:06:13.956Z,100.00
2022-10-30T23:08:41.970Z,100.00
2022-10-30T23:11:10.085Z,100.00
2022-10-30T23:13:37.767Z,100.00
2022-10-30T23:16:12.620Z,100.00
2022-10-30T23:18:40.076Z,100.00
2022-10-30T23:21:13.551Z,100.00
2022-10-30T23:23:42.220Z,100.00
2022-10-30T23:26:16.401Z,100.00
2022-10-30T23:28:44.812Z,100.00
2022-10-30T23:31:25.416Z,100.00
2022-10-30T23:33:55.119Z,100.00
2022-10-30T23:36:23.620Z,100.00
2022-10-30T23:39:17.639Z,100.00
2022-10-30T23:41:45.422Z,100.00
2022-10-30T23:44:14.764Z,100.00
2022-10-30T23:46:42.863Z,100.00
2022-10-30T23:49:10.339Z,100.00
2022-10-30T23:51:37.719Z,100.00
2022-10-30T23:54:05.415Z,100.00
2022-10-30T23:56:32.932Z,100.00
2022-10-30T23:59:01.053Z,100.00
